createdAt,value
2019-03-05T00:00:41.209Z,18.67
2019-03-05T00:03:10.107Z,16.07
2019-03-05T00:05:39.000Z,19.77
2019-03-05T00:08:07.837Z,14.20
2019-03-05T00:10:36.689Z,17.27
2019-03-05T00:13:05.680Z,16.37
2019-03-05T00:15:34.626Z,14.37
2019-03-05T00:18:03.473Z,17.07
2019-03-05T00:20:32.381Z,12.37
2019-03-05T00:23:01.232Z,15.03
2019-03-05T00:25:35.280Z,12.80
2019-03-05T00:28:25.430Z,14.07
2019-03-05T00:31:15.099Z,12.83
2019-03-05T00:34:04.395Z,16.90
2019-03-05T00:36:36.398Z,13.77
2019-03-05T00:39:30.961Z,15.70
2019-03-05T00:42:36.012Z,14.90
2019-03-05T00:45:13.939Z,12.77
2019-03-05T00:47:45.718Z,13.73
2019-03-05T00:50:37.494Z,12.77
2019-03-05T00:53:27.513Z,12.37
2019-03-05T00:56:19.014Z,14.03
2019-03-05T00:58:50.804Z,15.93
2019-03-05T01:01:25.582Z,13.90
2019-03-05T01:04:15.130Z,12.63
2019-03-05T01:06:44.034Z,13.47
2019-03-05T01:09:16.636Z,12.77
2019-03-05T01:11:45.478Z,10.97
2019-03-05T01:14:14.973Z,14.23
2019-03-05T01:16:43.833Z,14.73
2019-03-05T01:19:12.671Z,16.10
2019-03-05T01:21:41.647Z,11.93
2019-03-05T01:24:10.753Z,11.60
2019-03-05T01:26:39.561Z,15.23
2019-03-05T01:29:08.443Z,13.10
2019-03-05T01:31:48.169Z,16.07
2019-03-05T01:34:27.462Z,13.70
2019-03-05T01:37:00.627Z,12.60
2019-03-05T01:39:31.090Z,14.83
2019-03-05T01:41:59.921Z,11.27
2019-03-05T01:44:28.765Z,14.77
2019-03-05T01:46:57.677Z,15.13
2019-03-05T01:49:26.504Z,15.17
2019-03-05T01:51:55.370Z,15.07
2019-03-05T01:54:24.270Z,16.30
2019-03-05T01:56:53.105Z,18.07
2019-03-05T01:59:21.945Z,9.30
2019-03-05T02:01:50.838Z,5.87
2019-03-05T02:04:20.637Z,3.80
2019-03-05T02:06:49.606Z,4.07
2019-03-05T02:09:18.515Z,4.27
2019-03-05T02:11:47.551Z,4.43
2019-03-05T02:14:16.503Z,3.63
2019-03-05T02:16:45.412Z,3.47
2019-03-05T02:19:36.351Z,2.43
2019-03-05T02:22:07.626Z,3.20
2019-03-05T02:25:01.643Z,2.43
2019-03-05T02:27:39.376Z,3.97
2019-03-05T02:30:32.543Z,3.10
2019-03-05T02:33:13.179Z,1.90
2019-03-05T02:35:50.851Z,2.40
2019-03-05T02:38:34.610Z,5.23
2019-03-05T02:41:15.446Z,4.93
2019-03-05T02:44:03.760Z,4.40
2019-03-05T02:46:41.522Z,4.00
2019-03-05T02:49:16.084Z,4.10
2019-03-05T02:51:57.016Z,4.00
2019-03-05T02:54:48.090Z,2.73
2019-03-05T02:57:15.714Z,2.20
2019-03-05T02:59:44.554Z,2.57
2019-03-05T03:02:31.374Z,2.67
2019-03-05T03:05:04.562Z,1.80
2019-03-05T03:07:33.393Z,1.83
2019-03-05T03:10:17.813Z,4.43
2019-03-05T03:12:46.671Z,2.43
2019-03-05T03:15:15.698Z,2.00
2019-03-05T03:17:44.762Z,1.70
2019-03-05T03:20:15.121Z,1.13
2019-03-05T03:22:43.950Z,1.70
2019-03-05T03:25:17.500Z,3.53
2019-03-05T03:27:46.357Z,1.03
2019-03-05T03:30:17.120Z,1.33
2019-03-05T03:32:45.994Z,1.70
2019-03-05T03:35:15.907Z,1.47
2019-03-05T03:37:44.733Z,3.40
2019-03-05T03:40:16.309Z,2.77
2019-03-05T03:42:45.144Z,5.10
2019-03-05T03:45:16.275Z,8.10
2019-03-05T03:47:45.201Z,10.80
2019-03-05T03:50:14.430Z,8.83
2019-03-05T03:52:43.231Z,7.80
2019-03-05T03:55:14.175Z,6.80
2019-03-05T03:57:43.222Z,7.37
2019-03-05T04:00:20.074Z,4.03
2019-03-05T04:02:48.890Z,3.20
2019-03-05T04:05:17.740Z,7.03
2019-03-05T04:07:46.753Z,4.77
2019-03-05T04:10:16.382Z,4.17
2019-03-05T04:12:45.227Z,4.30
2019-03-05T04:15:16.118Z,5.93
2019-03-05T04:17:44.965Z,6.53
2019-03-05T04:20:17.063Z,8.00
2019-03-05T04:22:45.968Z,4.03
2019-03-05T04:25:14.833Z,5.57
2019-03-05T04:27:43.670Z,5.87
2019-03-05T04:30:14.150Z,5.73
2019-03-05T04:32:42.985Z,6.77
2019-03-05T04:35:12.829Z,8.33
2019-03-05T04:37:41.715Z,12.60
2019-03-05T04:40:12.145Z,12.70
2019-03-05T04:42:40.988Z,17.73
2019-03-05T04:45:35.031Z,16.53
2019-03-05T04:48:03.876Z,16.67
2019-03-05T04:50:34.282Z,14.27
2019-03-05T04:53:03.163Z,11.00
2019-03-05T04:55:31.986Z,17.47
2019-03-05T04:58:01.318Z,20.57
2019-03-05T05:00:30.206Z,20.43
2019-03-05T05:02:59.043Z,10.57
2019-03-05T05:05:27.870Z,8.80
2019-03-05T05:07:56.791Z,10.50
2019-03-05T05:10:25.632Z,14.50
2019-03-05T05:12:54.458Z,13.00
2019-03-05T05:15:29.108Z,14.13
2019-03-05T05:17:57.937Z,14.60
2019-03-05T05:20:26.888Z,14.53
2019-03-05T05:22:55.786Z,12.70
2019-03-05T05:25:24.724Z,13.47
2019-03-05T05:27:53.556Z,11.00
2019-03-05T05:30:33.831Z,14.00
2019-03-05T05:33:02.861Z,12.33
2019-03-05T05:35:31.695Z,11.63
2019-03-05T05:38:00.582Z,9.70
2019-03-05T05:40:34.737Z,12.87
2019-03-05T05:43:04.734Z,13.43
2019-03-05T05:45:36.824Z,14.03
2019-03-05T05:48:05.672Z,18.67
2019-03-05T05:50:34.571Z,14.93
2019-03-05T05:53:03.402Z,15.77
2019-03-05T05:55:32.248Z,15.90
2019-03-05T05:58:01.157Z,17.43
2019-03-05T06:00:30.288Z,18.03
2019-03-05T06:02:59.121Z,19.50
2019-03-05T06:05:28.007Z,26.20
2019-03-05T06:07:56.834Z,60.57
2019-03-05T06:10:26.514Z,43.53
2019-03-05T06:12:55.414Z,60.80
2019-03-05T06:15:24.269Z,64.47
2019-03-05T06:17:53.097Z,55.07
2019-03-05T06:20:21.980Z,55.93
2019-03-05T06:22:50.820Z,44.10
2019-03-05T06:25:19.660Z,28.27
2019-03-05T06:27:48.540Z,26.40
2019-03-05T06:30:19.458Z,34.83
2019-03-05T06:32:48.307Z,29.47
2019-03-05T06:35:17.898Z,28.33
2019-03-05T06:37:46.722Z,23.70
2019-03-05T06:40:18.243Z,25.00
2019-03-05T06:42:47.123Z,26.53
2019-03-05T06:45:18.037Z,22.70
2019-03-05T06:47:46.870Z,19.27
2019-03-05T06:50:17.666Z,27.77
2019-03-05T06:52:46.617Z,27.37
2019-03-05T06:55:16.514Z,21.40
2019-03-05T06:57:45.478Z,19.40
2019-03-05T07:00:26.849Z,15.33
2019-03-05T07:02:55.717Z,10.07
2019-03-05T07:06:00.781Z,15.57
2019-03-05T07:08:30.366Z,15.27
2019-03-05T07:11:17.337Z,17.33
2019-03-05T07:13:48.052Z,17.47
2019-03-05T07:16:22.411Z,16.37
2019-03-05T07:18:54.099Z,16.97
2019-03-05T07:21:50.407Z,17.13
2019-03-05T07:24:38.295Z,18.37
2019-03-05T07:27:07.227Z,24.00
2019-03-05T07:29:36.066Z,30.10
2019-03-05T07:32:05.178Z,28.97
2019-03-05T07:34:35.596Z,28.87
2019-03-05T07:37:05.933Z,41.13
2019-03-05T07:39:34.812Z,42.93
2019-03-05T07:42:03.764Z,49.13
2019-03-05T07:44:32.624Z,55.73
2019-03-05T07:47:01.503Z,44.83
2019-03-05T07:49:30.351Z,33.90
2019-03-05T07:51:59.185Z,36.60
2019-03-05T07:54:28.095Z,25.20
2019-03-05T07:56:56.934Z,24.60
2019-03-05T07:59:25.774Z,23.83
2019-03-05T08:01:54.617Z,21.73
2019-03-05T08:04:23.433Z,20.47
2019-03-05T08:06:52.276Z,20.23
2019-03-05T08:09:34.711Z,16.20
2019-03-05T08:12:12.313Z,20.30
2019-03-05T08:14:56.977Z,17.33
2019-03-05T08:17:26.109Z,24.10
2019-03-05T08:19:55.060Z,29.43
2019-03-05T08:22:23.958Z,35.53
2019-03-05T08:24:52.803Z,38.80
2019-03-05T08:27:21.603Z,40.53
2019-03-05T08:29:50.485Z,46.90
2019-03-05T08:32:19.345Z,47.83
2019-03-05T08:34:48.197Z,43.47
2019-03-05T08:37:17.093Z,44.67
2019-03-05T08:39:45.930Z,35.90
2019-03-05T08:42:14.781Z,32.53
2019-03-05T08:44:50.319Z,71.60
2019-03-05T08:47:14.170Z,61.27
2019-03-05T08:49:43.006Z,51.33
2019-03-05T08:52:12.092Z,54.37
2019-03-05T08:54:40.931Z,45.90
2019-03-05T08:57:09.723Z,40.93
2019-03-05T08:59:38.574Z,37.63
2019-03-05T09:02:07.512Z,38.53
2019-03-05T09:04:36.361Z,36.37
2019-03-05T09:07:05.254Z,37.67
2019-03-05T09:09:34.214Z,42.43
2019-03-05T09:12:03.256Z,47.60
2019-03-05T09:14:34.348Z,41.10
2019-03-05T09:17:02.694Z,72.07
2019-03-05T09:19:31.552Z,46.60
2019-03-05T09:22:00.440Z,38.53
2019-03-05T09:24:29.309Z,37.73
2019-03-05T09:26:58.147Z,36.57
2019-03-05T09:29:27.032Z,38.40
2019-03-05T09:31:55.867Z,41.93
2019-03-05T09:34:25.005Z,42.23
2019-03-05T09:36:53.938Z,43.30
2019-03-05T09:39:22.782Z,40.17
2019-03-05T09:41:51.618Z,41.97
2019-03-05T09:44:20.523Z,34.70
2019-03-05T09:46:49.350Z,21.77
2019-03-05T09:49:18.192Z,19.40
2019-03-05T09:51:47.084Z,23.50
2019-03-05T09:54:15.932Z,25.43
2019-03-05T09:56:44.768Z,33.20
2019-03-05T09:59:13.715Z,29.83
2019-03-05T10:01:42.863Z,32.33
2019-03-05T10:04:11.710Z,20.30
2019-03-05T10:06:40.583Z,20.53
2019-03-05T10:09:09.838Z,23.30
2019-03-05T10:11:38.670Z,22.60
2019-03-05T10:14:07.551Z,24.03
2019-03-05T10:16:36.394Z,29.27
2019-03-05T10:19:05.646Z,28.80
2019-03-05T10:21:45.507Z,28.03
2019-03-05T10:24:10.428Z,30.80
2019-03-05T10:26:36.289Z,30.57
2019-03-05T10:29:06.740Z,33.17
2019-03-05T10:31:35.588Z,31.07
2019-03-05T10:34:04.429Z,35.07
2019-03-05T10:36:33.350Z,30.20
2019-03-05T10:39:02.218Z,25.87
2019-03-05T10:41:31.159Z,27.23
2019-03-05T10:44:00.076Z,27.27
2019-03-05T10:46:28.911Z,22.63
2019-03-05T10:48:57.859Z,28.40
2019-03-05T10:51:26.761Z,24.27
2019-03-05T10:53:55.623Z,23.07
2019-03-05T10:56:24.468Z,23.50
2019-03-05T10:58:53.373Z,26.40
2019-03-05T11:01:22.213Z,30.33
2019-03-05T11:03:51.069Z,22.57
2019-03-05T11:06:20.025Z,27.80
2019-03-05T11:08:49.725Z,23.20
2019-03-05T11:11:18.553Z,23.90
2019-03-05T11:13:48.255Z,24.33
2019-03-05T11:16:17.209Z,26.20
2019-03-05T11:18:46.068Z,29.07
2019-03-05T11:21:14.985Z,28.67
2019-03-05T11:23:43.819Z,28.30
2019-03-05T11:26:12.666Z,30.73
2019-03-05T11:28:41.579Z,38.23
2019-03-05T11:31:10.428Z,33.17
2019-03-05T11:33:39.270Z,37.93
2019-03-05T11:36:08.252Z,28.80
2019-03-05T11:38:37.113Z,28.30
2019-03-05T11:41:06.046Z,23.20
2019-03-05T11:43:34.954Z,17.77
2019-03-05T11:46:05.013Z,30.17
2019-03-05T11:48:33.842Z,67.47
2019-03-05T11:51:02.766Z,85.10
2019-03-05T11:53:31.603Z,59.77
2019-03-05T11:56:00.440Z,50.10
2019-03-05T11:58:29.337Z,95.47
2019-03-05T12:00:59.766Z,70.47
2019-03-05T12:03:28.602Z,12.47
2019-03-05T12:05:57.485Z,6.40
2019-03-05T12:08:26.319Z,9.67
2019-03-05T12:10:55.172Z,36.07
2019-03-05T12:13:24.275Z,64.83
2019-03-05T12:15:53.133Z,69.17
2019-03-05T12:18:21.970Z,48.90
2019-03-05T12:20:50.868Z,54.90
2019-03-05T12:23:20.311Z,60.77
2019-03-05T12:25:49.155Z,58.40
2019-03-05T12:28:18.033Z,49.73
2019-03-05T12:30:46.846Z,47.43
2019-03-05T12:33:15.666Z,43.17
2019-03-05T12:35:44.580Z,37.40
2019-03-05T12:38:13.426Z,48.33
2019-03-05T12:40:42.293Z,43.10
2019-03-05T12:43:11.200Z,32.20
2019-03-05T12:45:40.001Z,34.67
2019-03-05T12:48:08.805Z,35.67
2019-03-05T12:50:38.618Z,33.30
2019-03-05T12:53:07.460Z,31.23
2019-03-05T12:55:36.310Z,27.33
2019-03-05T12:58:05.414Z,34.83
2019-03-05T13:00:35.851Z,23.63
2019-03-05T13:03:05.007Z,29.57
2019-03-05T13:05:33.890Z,30.77
2019-03-05T13:08:02.835Z,32.53
2019-03-05T13:10:37.417Z,33.33
2019-03-05T13:13:06.423Z,37.37
2019-03-05T13:15:37.935Z,37.83
2019-03-05T13:18:07.102Z,35.10
2019-03-05T13:20:35.995Z,30.27
2019-03-05T13:23:09.220Z,31.93
2019-03-05T13:25:38.110Z,35.47
2019-03-05T13:28:06.206Z,31.70
2019-03-05T13:30:35.042Z,36.80
2019-03-05T13:33:03.899Z,36.00
2019-03-05T13:35:32.775Z,37.70
2019-03-05T13:38:07.921Z,34.17
2019-03-05T13:40:38.534Z,36.90
2019-03-05T13:43:06.156Z,46.27
2019-03-05T13:45:35.225Z,41.63
2019-03-05T13:48:15.017Z,37.67
2019-03-05T13:50:52.512Z,48.40
2019-03-05T13:53:32.971Z,42.87
2019-03-05T13:56:24.065Z,52.67
2019-03-05T13:59:15.210Z,49.60
2019-03-05T14:01:44.059Z,45.00
2019-03-05T14:04:27.826Z,49.50
2019-03-05T14:07:05.618Z,53.27
2019-03-05T14:09:33.288Z,46.50
2019-03-05T14:12:02.147Z,47.63
2019-03-05T14:14:31.403Z,54.93
2019-03-05T14:17:10.764Z,64.80
2019-03-05T14:19:39.609Z,53.97
2019-03-05T14:22:08.455Z,47.53
2019-03-05T14:24:37.878Z,52.50
2019-03-05T14:27:06.736Z,68.50
2019-03-05T14:29:35.577Z,58.53
2019-03-05T14:32:04.476Z,51.90
2019-03-05T14:34:33.337Z,47.50
2019-03-05T14:37:02.198Z,59.70
2019-03-05T14:39:33.905Z,37.23
2019-03-05T14:42:03.775Z,27.60
2019-03-05T14:44:39.777Z,29.73
2019-03-05T14:47:05.117Z,24.90
2019-03-05T14:49:33.950Z,27.17
2019-03-05T14:52:02.930Z,28.07
2019-03-05T14:54:31.819Z,29.93
2019-03-05T14:57:00.683Z,33.50
2019-03-05T14:59:29.543Z,33.47
2019-03-05T15:01:58.440Z,30.73
2019-03-05T15:04:27.306Z,30.37
2019-03-05T15:06:56.131Z,36.00
2019-03-05T15:09:25.129Z,39.47
2019-03-05T15:11:54.022Z,43.07
2019-03-05T15:14:22.920Z,40.70
2019-03-05T15:16:51.909Z,31.87
2019-03-05T15:19:21.814Z,33.10
2019-03-05T15:21:50.914Z,33.00
2019-03-05T15:24:19.781Z,36.73
2019-03-05T15:26:48.644Z,43.90
2019-03-05T15:29:17.496Z,62.73
2019-03-05T15:31:46.478Z,72.83
2019-03-05T15:34:15.357Z,85.10
2019-03-05T15:36:44.206Z,88.47
2019-03-05T15:39:13.429Z,68.07
2019-03-05T15:41:45.848Z,71.10
2019-03-05T15:44:12.780Z,102.77
2019-03-05T15:46:41.670Z,81.30
2019-03-05T15:49:10.494Z,70.37
2019-03-05T15:51:39.360Z,67.30
2019-03-05T15:54:08.287Z,67.90
2019-03-05T15:56:37.128Z,62.30
2019-03-05T15:59:05.994Z,83.43
2019-03-05T16:01:34.891Z,79.53
2019-03-05T16:04:03.822Z,74.43
2019-03-05T16:06:34.062Z,82.43
2019-03-05T16:09:03.654Z,89.70
2019-03-05T16:11:34.058Z,78.20
2019-03-05T16:14:03.091Z,68.17
2019-03-05T16:16:32.209Z,59.70
2019-03-05T16:19:01.051Z,68.17
2019-03-05T16:21:29.887Z,68.63
2019-03-05T16:24:01.636Z,73.53
2019-03-05T16:26:29.302Z,74.07
2019-03-05T16:28:58.153Z,75.80
2019-03-05T16:31:28.952Z,181.70
2019-03-05T16:33:59.373Z,185.17
2019-03-05T16:36:30.565Z,187.93
2019-03-05T16:39:01.208Z,190.97
2019-03-05T16:41:46.582Z,132.97
2019-03-05T16:44:28.794Z,126.53
2019-03-05T16:47:15.779Z,148.50
2019-03-05T16:49:46.246Z,156.63
2019-03-05T16:52:22.455Z,166.70
2019-03-05T16:54:55.847Z,162.43
2019-03-05T16:57:42.713Z,162.13
2019-03-05T17:00:15.480Z,188.17
2019-03-05T17:02:54.938Z,225.60
2019-03-05T17:05:42.980Z,214.70
2019-03-05T17:08:19.428Z,211.60
2019-03-05T17:11:08.624Z,251.83
2019-03-05T17:13:37.468Z,428.40
2019-03-05T17:16:06.335Z,573.23
2019-03-05T17:18:35.236Z,482.80
2019-03-05T17:21:04.199Z,396.53
2019-03-05T17:23:33.043Z,337.53
2019-03-05T17:26:01.935Z,345.00
2019-03-05T17:28:30.798Z,319.40
2019-03-05T17:30:59.966Z,370.40
2019-03-05T17:33:29.995Z,297.70
2019-03-05T17:35:58.851Z,282.33
2019-03-05T17:38:27.695Z,210.07
2019-03-05T17:40:56.589Z,261.53
2019-03-05T17:43:25.656Z,382.97
2019-03-05T17:45:54.512Z,428.20
2019-03-05T17:48:23.426Z,486.67
2019-03-05T17:50:52.281Z,470.50
2019-03-05T17:53:21.137Z,357.83
2019-03-05T17:55:50.064Z,264.27
2019-03-05T17:58:18.908Z,244.40
2019-03-05T18:00:49.373Z,224.30
2019-03-05T18:03:18.271Z,201.73
2019-03-05T18:05:47.144Z,240.03
2019-03-05T18:08:15.980Z,250.17
2019-03-05T18:10:44.871Z,254.07
2019-03-05T18:13:13.729Z,280.77
2019-03-05T18:15:42.574Z,300.50
2019-03-05T18:18:11.504Z,312.67
2019-03-05T18:20:40.331Z,279.73
2019-03-05T18:23:09.218Z,284.20
2019-03-05T18:25:38.116Z,254.70
2019-03-05T18:28:06.971Z,278.80
2019-03-05T18:30:35.814Z,273.00
2019-03-05T18:33:04.716Z,251.47
2019-03-05T18:35:34.440Z,254.03
2019-03-05T18:38:03.302Z,262.93
2019-03-05T18:40:32.210Z,254.93
2019-03-05T18:43:01.191Z,252.63
2019-03-05T18:45:37.985Z,247.60
2019-03-05T18:48:06.852Z,248.40
2019-03-05T18:50:35.716Z,333.50
2019-03-05T18:53:05.916Z,318.93
2019-03-05T18:55:34.788Z,262.17
2019-03-05T18:58:03.625Z,334.30
2019-03-05T19:00:36.763Z,378.33
2019-03-05T19:03:14.065Z,404.27
2019-03-05T19:05:42.975Z,349.50
2019-03-05T19:08:11.855Z,364.33
2019-03-05T19:10:40.723Z,272.80
2019-03-05T19:13:09.642Z,235.87
2019-03-05T19:15:38.492Z,227.93
2019-03-05T19:18:07.447Z,224.90
2019-03-05T19:20:36.450Z,223.47
2019-03-05T19:23:05.316Z,262.17
2019-03-05T19:25:40.075Z,251.60
2019-03-05T19:28:11.348Z,250.47
2019-03-05T19:30:45.480Z,245.37
2019-03-05T19:33:14.342Z,259.70
2019-03-05T19:35:43.192Z,256.60
2019-03-05T19:38:12.134Z,229.03
2019-03-05T19:40:45.659Z,244.60
2019-03-05T19:43:14.518Z,245.37
2019-03-05T19:45:43.411Z,258.90
2019-03-05T19:48:12.267Z,250.63
2019-03-05T19:50:41.407Z,261.40
2019-03-05T19:53:10.305Z,290.77
2019-03-05T19:55:39.147Z,294.63
2019-03-05T19:58:12.386Z,315.37
2019-03-05T20:01:04.672Z,285.00
2019-03-05T20:03:33.506Z,284.90
2019-03-05T20:06:02.362Z,256.87
2019-03-05T20:08:39.504Z,282.67
2019-03-05T20:11:01.768Z,304.47
2019-03-05T20:13:30.612Z,363.93
2019-03-05T20:15:59.515Z,373.83
2019-03-05T20:18:28.366Z,351.10
2019-03-05T20:20:57.213Z,349.07
2019-03-05T20:23:26.304Z,333.10
2019-03-05T20:25:55.174Z,396.67
2019-03-05T20:28:24.050Z,414.33
2019-03-05T20:30:53.080Z,341.20
2019-03-05T20:33:21.924Z,359.80
2019-03-05T20:35:51.093Z,362.43
2019-03-05T20:38:20.095Z,331.03
2019-03-05T20:40:48.936Z,358.83
2019-03-05T20:43:17.793Z,332.10
2019-03-05T20:45:52.050Z,280.43
2019-03-05T20:48:20.887Z,329.83
2019-03-05T20:50:49.744Z,329.67
2019-03-05T20:53:18.635Z,314.50
2019-03-05T20:55:47.497Z,283.47
2019-03-05T20:58:16.354Z,273.07
2019-03-05T21:00:45.562Z,254.73
2019-03-05T21:03:14.426Z,210.00
2019-03-05T21:05:45.143Z,212.70
2019-03-05T21:08:14.141Z,271.57
2019-03-05T21:10:42.992Z,463.07
2019-03-05T21:13:12.030Z,379.60
2019-03-05T21:15:40.930Z,412.63
2019-03-05T21:18:11.773Z,339.90
2019-03-05T21:20:40.658Z,356.17
2019-03-05T21:23:09.561Z,354.23
2019-03-05T21:25:38.418Z,359.10
2019-03-05T21:28:07.259Z,439.90
2019-03-05T21:30:36.391Z,357.40
2019-03-05T21:33:05.242Z,360.30
2019-03-05T21:35:34.101Z,290.97
2019-03-05T21:38:02.997Z,299.63
2019-03-05T21:40:33.067Z,327.80
2019-03-05T21:43:02.025Z,294.47
2019-03-05T21:45:39.270Z,336.50
2019-03-05T21:48:08.122Z,297.17
2019-03-05T21:50:36.984Z,288.10
2019-03-05T21:53:06.207Z,271.37
2019-03-05T21:55:35.062Z,302.03
2019-03-05T21:58:04.209Z,313.93
2019-03-05T22:00:34.297Z,306.73
2019-03-05T22:03:03.345Z,298.93
2019-03-05T22:05:32.196Z,299.07
2019-03-05T22:08:01.128Z,311.80
2019-03-05T22:10:29.981Z,318.27
2019-03-05T22:12:58.829Z,274.50
2019-03-05T22:15:35.429Z,228.63
2019-03-05T22:18:04.303Z,259.93
2019-03-05T22:20:33.156Z,337.07
2019-03-05T22:23:02.190Z,367.63
2019-03-05T22:25:31.061Z,243.20
2019-03-05T22:27:59.913Z,231.43
2019-03-05T22:30:36.695Z,262.33
2019-03-05T22:33:05.683Z,265.93
2019-03-05T22:35:34.492Z,259.77
2019-03-05T22:38:03.382Z,248.60
2019-03-05T22:40:32.353Z,241.67
2019-03-05T22:43:01.196Z,227.73
2019-03-05T22:45:36.377Z,245.70
2019-03-05T22:48:05.232Z,269.77
2019-03-05T22:50:34.078Z,287.17
2019-03-05T22:53:03.249Z,250.47
2019-03-05T22:55:32.209Z,202.87
2019-03-05T22:58:01.081Z,183.37
2019-03-05T23:01:01.440Z,358.80
2019-03-05T23:03:31.587Z,416.87
2019-03-05T23:06:03.127Z,412.70
2019-03-05T23:08:32.060Z,231.07
2019-03-05T23:11:01.529Z,204.33
2019-03-05T23:13:30.477Z,185.83
2019-03-05T23:15:59.776Z,196.43
2019-03-05T23:18:28.730Z,192.07
2019-03-05T23:20:57.692Z,184.67
2019-03-05T23:23:26.594Z,201.00
2019-03-05T23:25:55.467Z,192.97
2019-03-05T23:28:24.604Z,175.03
2019-03-05T23:30:53.518Z,261.37
2019-03-05T23:33:22.360Z,293.80
2019-03-05T23:35:51.312Z,348.77
2019-03-05T23:38:20.223Z,474.93
2019-03-05T23:40:49.495Z,381.33
2019-03-05T23:43:18.345Z,456.33
2019-03-05T23:45:47.454Z,444.90
2019-03-05T23:48:16.304Z,387.90
2019-03-05T23:50:45.149Z,179.47
2019-03-05T23:53:14.373Z,193.13
2019-03-05T23:55:43.216Z,215.67
2019-03-05T23:58:12.076Z,226.67
